sensor_id;sensor_type;location;lat;lon;timestamp;P1;durP1;ratioP1;P2;durP2;ratioP2
15155;SDS011;7678;50.058;8.306;2024-01-30T00:01:53;33.13;;;25.53;;
15155;SDS011;7678;50.058;8.306;2024-01-30T00:04:21;27.03;;;23.03;;
15155;SDS011;7678;50.058;8.306;2024-01-30T00:06:50;25.00;;;22.00;;
15155;SDS011;7678;50.058;8.306;2024-01-30T00:09:19;29.13;;;23.60;;
15155;SDS011;7678;50.058;8.306;2024-01-30T00:11:47;30.07;;;24.33;;
15155;SDS011;7678;50.058;8.306;2024-01-30T00:14:15;27.13;;;22.40;;
15155;SDS011;7678;50.058;8.306;2024-01-30T00:16:45;26.60;;;22.87;;
15155;SDS011;7678;50.058;8.306;2024-01-30T00:19:13;29.40;;;23.67;;
15155;SDS011;7678;50.058;8.306;2024-01-30T00:21:41;28.40;;;23.03;;
15155;SDS011;7678;50.058;8.306;2024-01-30T00:24:09;29.53;;;24.27;;
15155;SDS011;7678;50.058;8.306;2024-01-30T00:26:38;25.17;;;21.30;;
15155;SDS011;7678;50.058;8.306;2024-01-30T00:29:06;30.37;;;23.80;;
15155;SDS011;7678;50.058;8.306;2024-01-30T00:31:34;24.97;;;21.90;;
15155;SDS011;7678;50.058;8.306;2024-01-30T00:34:08;28.80;;;23.20;;
15155;SDS011;7678;50.058;8.306;2024-01-30T00:36:36;28.60;;;23.37;;
15155;SDS011;7678;50.058;8.306;2024-01-30T00:39:05;29.77;;;23.17;;
15155;SDS011;7678;50.058;8.306;2024-01-30T00:41:35;29.30;;;23.83;;
15155;SDS011;7678;50.058;8.306;2024-01-30T00:44:03;28.77;;;23.23;;
15155;SDS011;7678;50.058;8.306;2024-01-30T00:46:32;27.53;;;23.60;;
15155;SDS011;7678;50.058;8.306;2024-01-30T00:49:00;28.67;;;24.07;;
15155;SDS011;7678;50.058;8.306;2024-01-30T00:51:30;29.77;;;24.83;;
15155;SDS011;7678;50.058;8.306;2024-01-30T00:53:58;25.80;;;23.00;;
15155;SDS011;7678;50.058;8.306;2024-01-30T00:56:27;28.87;;;24.47;;
15155;SDS011;7678;50.058;8.306;2024-01-30T00:58:55;28.23;;;24.17;;
15155;SDS011;7678;50.058;8.306;2024-01-30T01:01:24;32.30;;;24.97;;
15155;SDS011;7678;50.058;8.306;2024-01-30T01:03:52;30.20;;;25.73;;
15155;SDS011;7678;50.058;8.306;2024-01-30T01:06:20;28.73;;;24.17;;
15155;SDS011;7678;50.058;8.306;2024-01-30T01:08:50;27.83;;;23.17;;
15155;SDS011;7678;50.058;8.306;2024-01-30T01:11:18;27.13;;;24.13;;
15155;SDS011;7678;50.058;8.306;2024-01-30T01:13:47;27.43;;;23.40;;
15155;SDS011;7678;50.058;8.306;2024-01-30T01:16:15;26.17;;;22.53;;
15155;SDS011;7678;50.058;8.306;2024-01-30T01:18:43;27.57;;;23.23;;
15155;SDS011;7678;50.058;8.306;2024-01-30T01:21:11;27.90;;;22.93;;
15155;SDS011;7678;50.058;8.306;2024-01-30T01:23:40;27.07;;;22.87;;
15155;SDS011;7678;50.058;8.306;2024-01-30T01:26:09;25.07;;;22.37;;
15155;SDS011;7678;50.058;8.306;2024-01-30T01:28:39;26.30;;;22.63;;
15155;SDS011;7678;50.058;8.306;2024-01-30T01:31:08;28.60;;;22.43;;
15155;SDS011;7678;50.058;8.306;2024-01-30T01:33:36;24.07;;;21.47;;
15155;SDS011;7678;50.058;8.306;2024-01-30T01:36:04;28.47;;;22.77;;
15155;SDS011;7678;50.058;8.306;2024-01-30T01:38:33;28.57;;;22.93;;
15155;SDS011;7678;50.058;8.306;2024-01-30T01:41:01;30.33;;;22.10;;
15155;SDS011;7678;50.058;8.306;2024-01-30T01:43:31;24.27;;;21.60;;
15155;SDS011;7678;50.058;8.306;2024-01-30T01:45:59;25.60;;;22.77;;
15155;SDS011;7678;50.058;8.306;2024-01-30T01:48:28;26.50;;;22.30;;
15155;SDS011;7678;50.058;8.306;2024-01-30T01:50:56;28.57;;;23.13;;
15155;SDS011;7678;50.058;8.306;2024-01-30T01:53:26;26.90;;;23.30;;
15155;SDS011;7678;50.058;8.306;2024-01-30T01:55:54;26.63;;;22.40;;
15155;SDS011;7678;50.058;8.306;2024-01-30T01:58:24;28.17;;;23.00;;
15155;SDS011;7678;50.058;8.306;2024-01-30T02:00:57;26.93;;;21.17;;
15155;SDS011;7678;50.058;8.306;2024-01-30T02:03:26;24.87;;;22.17;;
15155;SDS011;7678;50.058;8.306;2024-01-30T02:05:55;26.73;;;22.03;;
15155;SDS011;7678;50.058;8.306;2024-01-30T02:08:23;31.73;;;21.80;;
15155;SDS011;7678;50.058;8.306;2024-01-30T02:10:52;27.13;;;22.23;;
15155;SDS011;7678;50.058;8.306;2024-01-30T02:13:20;24.73;;;21.23;;
15155;SDS011;7678;50.058;8.306;2024-01-30T02:15:49;28.63;;;22.33;;
15155;SDS011;7678;50.058;8.306;2024-01-30T02:18:20;27.83;;;22.97;;
15155;SDS011;7678;50.058;8.306;2024-01-30T02:20:49;26.30;;;23.23;;
15155;SDS011;7678;50.058;8.306;2024-01-30T02:23:23;26.47;;;22.53;;
15155;SDS011;7678;50.058;8.306;2024-01-30T02:25:52;28.77;;;24.53;;
15155;SDS011;7678;50.058;8.306;2024-01-30T02:28:20;27.13;;;23.70;;
15155;SDS011;7678;50.058;8.306;2024-01-30T02:30:49;26.20;;;23.00;;
15155;SDS011;7678;50.058;8.306;2024-01-30T02:33:17;27.47;;;22.70;;
15155;SDS011;7678;50.058;8.306;2024-01-30T02:35:49;27.23;;;23.07;;
15155;SDS011;7678;50.058;8.306;2024-01-30T02:38:17;28.10;;;23.40;;
15155;SDS011;7678;50.058;8.306;2024-01-30T02:40:46;30.13;;;23.10;;
15155;SDS011;7678;50.058;8.306;2024-01-30T02:43:15;27.97;;;22.80;;
15155;SDS011;7678;50.058;8.306;2024-01-30T02:45:43;32.67;;;24.07;;
15155;SDS011;7678;50.058;8.306;2024-01-30T02:48:13;28.83;;;22.63;;
15155;SDS011;7678;50.058;8.306;2024-01-30T02:50:41;30.67;;;24.37;;
15155;SDS011;7678;50.058;8.306;2024-01-30T02:53:10;28.50;;;24.00;;
15155;SDS011;7678;50.058;8.306;2024-01-30T02:55:38;28.07;;;23.20;;
15155;SDS011;7678;50.058;8.306;2024-01-30T02:58:07;29.83;;;24.40;;
15155;SDS011;7678;50.058;8.306;2024-01-30T03:00:35;25.50;;;22.70;;
15155;SDS011;7678;50.058;8.306;2024-01-30T03:03:04;30.10;;;24.63;;
15155;SDS011;7678;50.058;8.306;2024-01-30T03:05:32;28.53;;;24.47;;
15155;SDS011;7678;50.058;8.306;2024-01-30T03:08:03;27.23;;;23.93;;
15155;SDS011;7678;50.058;8.306;2024-01-30T03:10:32;26.97;;;23.90;;
15155;SDS011;7678;50.058;8.306;2024-01-30T03:13:00;28.10;;;24.30;;
15155;SDS011;7678;50.058;8.306;2024-01-30T03:15:30;28.63;;;24.63;;
15155;SDS011;7678;50.058;8.306;2024-01-30T03:17:58;29.77;;;24.13;;
15155;SDS011;7678;50.058;8.306;2024-01-30T03:20:26;29.13;;;24.47;;
15155;SDS011;7678;50.058;8.306;2024-01-30T03:22:54;28.67;;;25.37;;
15155;SDS011;7678;50.058;8.306;2024-01-30T03:25:23;28.43;;;23.77;;
15155;SDS011;7678;50.058;8.306;2024-01-30T03:27:51;29.03;;;23.77;;
15155;SDS011;7678;50.058;8.306;2024-01-30T03:30:19;26.60;;;23.80;;
15155;SDS011;7678;50.058;8.306;2024-01-30T03:32:49;29.90;;;24.27;;
15155;SDS011;7678;50.058;8.306;2024-01-30T03:35:18;26.40;;;23.17;;
15155;SDS011;7678;50.058;8.306;2024-01-30T03:37:47;28.37;;;24.00;;
15155;SDS011;7678;50.058;8.306;2024-01-30T03:40:15;30.13;;;23.80;;
15155;SDS011;7678;50.058;8.306;2024-01-30T03:42:44;28.83;;;23.90;;
15155;SDS011;7678;50.058;8.306;2024-01-30T03:45:12;29.73;;;24.00;;
15155;SDS011;7678;50.058;8.306;2024-01-30T03:47:43;27.20;;;23.53;;
15155;SDS011;7678;50.058;8.306;2024-01-30T03:50:12;28.57;;;23.43;;
15155;SDS011;7678;50.058;8.306;2024-01-30T03:52:41;27.40;;;22.77;;
15155;SDS011;7678;50.058;8.306;2024-01-30T03:55:09;26.40;;;22.73;;
15155;SDS011;7678;50.058;8.306;2024-01-30T03:57:37;28.87;;;23.43;;
15155;SDS011;7678;50.058;8.306;2024-01-30T04:00:06;29.47;;;23.43;;
15155;SDS011;7678;50.058;8.306;2024-01-30T04:02:35;28.20;;;23.30;;
15155;SDS011;7678;50.058;8.306;2024-01-30T04:05:03;28.43;;;24.27;;
15155;SDS011;7678;50.058;8.306;2024-01-30T04:07:37;28.37;;;23.87;;
15155;SDS011;7678;50.058;8.306;2024-01-30T04:10:06;26.93;;;23.57;;
15155;SDS011;7678;50.058;8.306;2024-01-30T04:12:35;26.80;;;23.73;;
15155;SDS011;7678;50.058;8.306;2024-01-30T04:15:04;29.83;;;24.70;;
15155;SDS011;7678;50.058;8.306;2024-01-30T04:17:32;30.13;;;23.97;;
15155;SDS011;7678;50.058;8.306;2024-01-30T04:20:01;27.23;;;23.67;;
15155;SDS011;7678;50.058;8.306;2024-01-30T04:22:29;27.20;;;23.80;;
15155;SDS011;7678;50.058;8.306;2024-01-30T04:24:59;30.70;;;24.50;;
15155;SDS011;7678;50.058;8.306;2024-01-30T04:27:27;28.37;;;24.57;;
15155;SDS011;7678;50.058;8.306;2024-01-30T04:29:55;34.03;;;28.30;;
15155;SDS011;7678;50.058;8.306;2024-01-30T04:32:23;33.73;;;24.73;;
15155;SDS011;7678;50.058;8.306;2024-01-30T04:34:51;29.77;;;25.43;;
15155;SDS011;7678;50.058;8.306;2024-01-30T04:37:21;28.73;;;23.50;;
15155;SDS011;7678;50.058;8.306;2024-01-30T04:39:49;29.97;;;24.97;;
15155;SDS011;7678;50.058;8.306;2024-01-30T04:42:18;30.97;;;23.77;;
15155;SDS011;7678;50.058;8.306;2024-01-30T04:44:46;27.23;;;23.83;;
15155;SDS011;7678;50.058;8.306;2024-01-30T04:47:14;31.27;;;23.93;;
15155;SDS011;7678;50.058;8.306;2024-01-30T04:49:43;30.10;;;24.50;;
15155;SDS011;7678;50.058;8.306;2024-01-30T04:52:11;28.60;;;23.60;;
15155;SDS011;7678;50.058;8.306;2024-01-30T04:54:39;26.27;;;23.10;;
15155;SDS011;7678;50.058;8.306;2024-01-30T04:57:07;26.40;;;22.90;;
15155;SDS011;7678;50.058;8.306;2024-01-30T04:59:40;29.43;;;23.53;;
15155;SDS011;7678;50.058;8.306;2024-01-30T05:02:08;27.27;;;24.20;;
15155;SDS011;7678;50.058;8.306;2024-01-30T05:04:37;30.70;;;23.33;;
15155;SDS011;7678;50.058;8.306;2024-01-30T05:07:05;27.80;;;23.83;;
15155;SDS011;7678;50.058;8.306;2024-01-30T05:09:33;26.73;;;23.10;;
15155;SDS011;7678;50.058;8.306;2024-01-30T05:12:02;29.27;;;24.67;;
15155;SDS011;7678;50.058;8.306;2024-01-30T05:14:30;28.03;;;23.73;;
15155;SDS011;7678;50.058;8.306;2024-01-30T05:17:00;27.73;;;24.10;;
15155;SDS011;7678;50.058;8.306;2024-01-30T05:19:29;26.83;;;22.77;;
15155;SDS011;7678;50.058;8.306;2024-01-30T05:21:57;28.07;;;23.27;;
15155;SDS011;7678;50.058;8.306;2024-01-30T05:24:25;30.43;;;24.90;;
15155;SDS011;7678;50.058;8.306;2024-01-30T05:26:54;29.37;;;24.43;;
15155;SDS011;7678;50.058;8.306;2024-01-30T05:29:22;27.77;;;24.53;;
15155;SDS011;7678;50.058;8.306;2024-01-30T05:31:50;31.47;;;25.67;;
15155;SDS011;7678;50.058;8.306;2024-01-30T05:34:19;31.17;;;26.30;;
15155;SDS011;7678;50.058;8.306;2024-01-30T05:36:48;31.97;;;26.23;;
15155;SDS011;7678;50.058;8.306;2024-01-30T05:39:16;33.83;;;26.53;;
15155;SDS011;7678;50.058;8.306;2024-01-30T05:41:44;32.73;;;26.80;;
15155;SDS011;7678;50.058;8.306;2024-01-30T05:44:12;31.63;;;26.80;;
15155;SDS011;7678;50.058;8.306;2024-01-30T05:46:41;28.47;;;25.33;;
15155;SDS011;7678;50.058;8.306;2024-01-30T05:49:09;30.10;;;25.27;;
15155;SDS011;7678;50.058;8.306;2024-01-30T05:51:39;30.33;;;25.30;;
15155;SDS011;7678;50.058;8.306;2024-01-30T05:54:08;30.07;;;24.57;;
15155;SDS011;7678;50.058;8.306;2024-01-30T05:56:36;33.67;;;26.30;;
15155;SDS011;7678;50.058;8.306;2024-01-30T05:59:04;30.83;;;26.13;;
15155;SDS011;7678;50.058;8.306;2024-01-30T06:01:32;34.40;;;25.67;;
15155;SDS011;7678;50.058;8.306;2024-01-30T06:04:01;31.10;;;25.83;;
15155;SDS011;7678;50.058;8.306;2024-01-30T06:06:29;28.73;;;24.90;;
15155;SDS011;7678;50.058;8.306;2024-01-30T06:08:59;34.70;;;24.63;;
15155;SDS011;7678;50.058;8.306;2024-01-30T06:11:27;31.67;;;26.20;;
15155;SDS011;7678;50.058;8.306;2024-01-30T06:13:55;32.63;;;26.43;;
15155;SDS011;7678;50.058;8.306;2024-01-30T06:16:23;33.53;;;27.37;;
15155;SDS011;7678;50.058;8.306;2024-01-30T06:18:55;33.77;;;28.27;;
15155;SDS011;7678;50.058;8.306;2024-01-30T06:21:24;34.40;;;27.07;;
15155;SDS011;7678;50.058;8.306;2024-01-30T06:23:53;33.03;;;26.73;;
15155;SDS011;7678;50.058;8.306;2024-01-30T06:26:22;33.13;;;24.73;;
15155;SDS011;7678;50.058;8.306;2024-01-30T06:28:51;34.00;;;26.73;;
15155;SDS011;7678;50.058;8.306;2024-01-30T06:31:19;35.17;;;27.67;;
15155;SDS011;7678;50.058;8.306;2024-01-30T06:33:47;37.37;;;26.67;;
15155;SDS011;7678;50.058;8.306;2024-01-30T06:36:17;32.53;;;26.40;;
15155;SDS011;7678;50.058;8.306;2024-01-30T06:38:45;33.47;;;25.40;;
15155;SDS011;7678;50.058;8.306;2024-01-30T06:41:13;31.80;;;26.70;;
15155;SDS011;7678;50.058;8.306;2024-01-30T06:43:43;31.77;;;27.03;;
15155;SDS011;7678;50.058;8.306;2024-01-30T06:46:11;36.77;;;28.50;;
15155;SDS011;7678;50.058;8.306;2024-01-30T06:48:40;36.10;;;29.37;;
15155;SDS011;7678;50.058;8.306;2024-01-30T06:51:11;35.07;;;27.07;;
15155;SDS011;7678;50.058;8.306;2024-01-30T06:53:43;31.90;;;27.03;;
15155;SDS011;7678;50.058;8.306;2024-01-30T06:56:11;31.93;;;26.77;;
15155;SDS011;7678;50.058;8.306;2024-01-30T06:58:39;31.70;;;26.40;;
15155;SDS011;7678;50.058;8.306;2024-01-30T07:01:09;33.53;;;27.20;;
15155;SDS011;7678;50.058;8.306;2024-01-30T07:03:38;31.20;;;25.87;;
15155;SDS011;7678;50.058;8.306;2024-01-30T07:06:06;30.87;;;26.47;;
15155;SDS011;7678;50.058;8.306;2024-01-30T07:08:34;36.03;;;28.07;;
15155;SDS011;7678;50.058;8.306;2024-01-30T07:11:03;35.57;;;27.43;;
15155;SDS011;7678;50.058;8.306;2024-01-30T07:13:32;35.20;;;28.50;;
15155;SDS011;7678;50.058;8.306;2024-01-30T07:16:00;36.97;;;27.33;;
15155;SDS011;7678;50.058;8.306;2024-01-30T07:18:30;37.20;;;27.63;;
15155;SDS011;7678;50.058;8.306;2024-01-30T07:20:58;34.73;;;27.70;;
15155;SDS011;7678;50.058;8.306;2024-01-30T07:23:28;35.73;;;28.27;;
15155;SDS011;7678;50.058;8.306;2024-01-30T07:25:57;41.97;;;28.13;;
15155;SDS011;7678;50.058;8.306;2024-01-30T07:28:26;36.37;;;28.13;;
15155;SDS011;7678;50.058;8.306;2024-01-30T07:30:54;39.67;;;30.57;;
15155;SDS011;7678;50.058;8.306;2024-01-30T07:33:23;37.00;;;28.30;;
15155;SDS011;7678;50.058;8.306;2024-01-30T07:35:53;37.67;;;28.03;;
15155;SDS011;7678;50.058;8.306;2024-01-30T07:38:21;38.30;;;28.67;;
15155;SDS011;7678;50.058;8.306;2024-01-30T07:40:49;35.30;;;30.03;;
15155;SDS011;7678;50.058;8.306;2024-01-30T07:43:17;35.00;;;29.33;;
15155;SDS011;7678;50.058;8.306;2024-01-30T07:45:47;34.77;;;29.63;;
15155;SDS011;7678;50.058;8.306;2024-01-30T07:48:15;39.77;;;30.60;;
15155;SDS011;7678;50.058;8.306;2024-01-30T07:50:43;38.23;;;30.60;;
15155;SDS011;7678;50.058;8.306;2024-01-30T07:53:13;40.90;;;30.67;;
15155;SDS011;7678;50.058;8.306;2024-01-30T07:55:41;36.87;;;29.77;;
15155;SDS011;7678;50.058;8.306;2024-01-30T07:58:10;39.23;;;30.40;;
15155;SDS011;7678;50.058;8.306;2024-01-30T08:00:38;36.87;;;31.10;;
15155;SDS011;7678;50.058;8.306;2024-01-30T08:03:06;38.87;;;32.23;;
15155;SDS011;7678;50.058;8.306;2024-01-30T08:05:35;38.97;;;31.73;;
15155;SDS011;7678;50.058;8.306;2024-01-30T08:08:04;41.70;;;32.70;;
15155;SDS011;7678;50.058;8.306;2024-01-30T08:10:34;43.63;;;33.77;;
15155;SDS011;7678;50.058;8.306;2024-01-30T08:13:03;43.43;;;33.93;;
15155;SDS011;7678;50.058;8.306;2024-01-30T08:15:31;40.70;;;34.40;;
15155;SDS011;7678;50.058;8.306;2024-01-30T08:18:00;42.63;;;32.37;;
15155;SDS011;7678;50.058;8.306;2024-01-30T08:20:28;40.43;;;32.87;;
15155;SDS011;7678;50.058;8.306;2024-01-30T08:22:56;41.57;;;32.40;;
15155;SDS011;7678;50.058;8.306;2024-01-30T08:25:24;38.70;;;32.07;;
15155;SDS011;7678;50.058;8.306;2024-01-30T08:27:54;44.47;;;32.00;;
15155;SDS011;7678;50.058;8.306;2024-01-30T08:30:24;37.20;;;31.53;;
15155;SDS011;7678;50.058;8.306;2024-01-30T08:32:53;40.13;;;31.03;;
15155;SDS011;7678;50.058;8.306;2024-01-30T08:35:22;40.77;;;31.13;;
15155;SDS011;7678;50.058;8.306;2024-01-30T08:37:50;36.47;;;29.03;;
15155;SDS011;7678;50.058;8.306;2024-01-30T08:40:20;40.57;;;32.30;;
15155;SDS011;7678;50.058;8.306;2024-01-30T08:42:49;42.97;;;31.70;;
15155;SDS011;7678;50.058;8.306;2024-01-30T08:45:18;36.93;;;28.57;;
15155;SDS011;7678;50.058;8.306;2024-01-30T08:47:46;43.23;;;31.93;;
15155;SDS011;7678;50.058;8.306;2024-01-30T08:50:15;35.67;;;29.40;;
15155;SDS011;7678;50.058;8.306;2024-01-30T08:52:43;37.30;;;28.60;;
15155;SDS011;7678;50.058;8.306;2024-01-30T08:55:13;35.93;;;29.80;;
15155;SDS011;7678;50.058;8.306;2024-01-30T08:57:41;38.57;;;28.33;;
15155;SDS011;7678;50.058;8.306;2024-01-30T09:00:10;32.97;;;26.70;;
15155;SDS011;7678;50.058;8.306;2024-01-30T09:02:41;33.47;;;26.73;;
15155;SDS011;7678;50.058;8.306;2024-01-30T09:05:09;44.47;;;30.23;;
15155;SDS011;7678;50.058;8.306;2024-01-30T09:07:38;44.40;;;30.87;;
15155;SDS011;7678;50.058;8.306;2024-01-30T09:10:10;41.40;;;29.70;;
15155;SDS011;7678;50.058;8.306;2024-01-30T09:12:40;37.47;;;29.47;;
15155;SDS011;7678;50.058;8.306;2024-01-30T09:15:09;36.67;;;29.93;;
15155;SDS011;7678;50.058;8.306;2024-01-30T09:17:37;44.63;;;32.97;;
15155;SDS011;7678;50.058;8.306;2024-01-30T09:20:07;37.37;;;29.33;;
15155;SDS011;7678;50.058;8.306;2024-01-30T09:22:36;38.53;;;29.67;;
15155;SDS011;7678;50.058;8.306;2024-01-30T09:25:05;37.37;;;30.47;;
15155;SDS011;7678;50.058;8.306;2024-01-30T09:27:34;36.57;;;27.97;;
15155;SDS011;7678;50.058;8.306;2024-01-30T09:30:02;33.90;;;27.57;;
15155;SDS011;7678;50.058;8.306;2024-01-30T09:32:31;38.43;;;30.70;;
15155;SDS011;7678;50.058;8.306;2024-01-30T09:34:59;39.90;;;32.33;;
15155;SDS011;7678;50.058;8.306;2024-01-30T09:37:29;37.70;;;28.90;;
15155;SDS011;7678;50.058;8.306;2024-01-30T09:39:58;31.63;;;26.33;;
15155;SDS011;7678;50.058;8.306;2024-01-30T09:42:28;35.57;;;28.50;;
15155;SDS011;7678;50.058;8.306;2024-01-30T09:45:01;36.23;;;29.17;;
15155;SDS011;7678;50.058;8.306;2024-01-30T09:47:30;35.00;;;27.23;;
15155;SDS011;7678;50.058;8.306;2024-01-30T09:49:59;37.87;;;27.03;;
15155;SDS011;7678;50.058;8.306;2024-01-30T09:52:33;33.47;;;25.67;;
15155;SDS011;7678;50.058;8.306;2024-01-30T09:55:02;34.13;;;27.27;;
15155;SDS011;7678;50.058;8.306;2024-01-30T09:57:31;36.00;;;26.80;;
15155;SDS011;7678;50.058;8.306;2024-01-30T09:59:59;35.93;;;27.57;;
15155;SDS011;7678;50.058;8.306;2024-01-30T10:02:27;34.87;;;26.23;;
15155;SDS011;7678;50.058;8.306;2024-01-30T10:04:56;33.30;;;26.67;;
15155;SDS011;7678;50.058;8.306;2024-01-30T10:07:24;32.37;;;25.43;;
15155;SDS011;7678;50.058;8.306;2024-01-30T10:09:54;46.17;;;30.73;;
15155;SDS011;7678;50.058;8.306;2024-01-30T10:12:23;36.90;;;28.37;;
15155;SDS011;7678;50.058;8.306;2024-01-30T10:14:53;36.87;;;28.67;;
15155;SDS011;7678;50.058;8.306;2024-01-30T10:17:24;40.53;;;28.70;;
15155;SDS011;7678;50.058;8.306;2024-01-30T10:19:59;39.60;;;26.80;;
15155;SDS011;7678;50.058;8.306;2024-01-30T10:22:28;35.70;;;27.00;;
15155;SDS011;7678;50.058;8.306;2024-01-30T10:24:58;31.33;;;24.43;;
15155;SDS011;7678;50.058;8.306;2024-01-30T10:27:31;32.67;;;26.00;;
15155;SDS011;7678;50.058;8.306;2024-01-30T10:30:00;35.50;;;25.53;;
15155;SDS011;7678;50.058;8.306;2024-01-30T10:32:30;32.03;;;24.43;;
15155;SDS011;7678;50.058;8.306;2024-01-30T10:34:59;32.17;;;23.60;;
15155;SDS011;7678;50.058;8.306;2024-01-30T10:37:27;34.97;;;23.50;;
15155;SDS011;7678;50.058;8.306;2024-01-30T10:40:02;30.37;;;23.27;;
15155;SDS011;7678;50.058;8.306;2024-01-30T10:42:32;32.63;;;22.60;;
15155;SDS011;7678;50.058;8.306;2024-01-30T10:45:05;31.20;;;22.97;;
15155;SDS011;7678;50.058;8.306;2024-01-30T10:47:35;33.27;;;24.43;;
15155;SDS011;7678;50.058;8.306;2024-01-30T10:50:04;35.17;;;23.73;;
15155;SDS011;7678;50.058;8.306;2024-01-30T10:52:35;30.60;;;22.83;;
15155;SDS011;7678;50.058;8.306;2024-01-30T10:55:05;32.00;;;23.40;;
15155;SDS011;7678;50.058;8.306;2024-01-30T10:57:35;30.67;;;22.33;;
15155;SDS011;7678;50.058;8.306;2024-01-30T11:00:04;31.03;;;22.47;;
15155;SDS011;7678;50.058;8.306;2024-01-30T11:02:37;27.17;;;22.03;;
15155;SDS011;7678;50.058;8.306;2024-01-30T11:05:07;28.83;;;21.70;;
15155;SDS011;7678;50.058;8.306;2024-01-30T11:07:36;26.03;;;21.20;;
15155;SDS011;7678;50.058;8.306;2024-01-30T11:10:08;28.50;;;21.60;;
15155;SDS011;7678;50.058;8.306;2024-01-30T11:12:40;30.40;;;20.87;;
15155;SDS011;7678;50.058;8.306;2024-01-30T11:15:11;25.20;;;20.47;;
15155;SDS011;7678;50.058;8.306;2024-01-30T11:17:41;25.80;;;20.47;;
15155;SDS011;7678;50.058;8.306;2024-01-30T11:20:11;25.57;;;19.93;;
15155;SDS011;7678;50.058;8.306;2024-01-30T11:22:42;28.60;;;20.20;;
15155;SDS011;7678;50.058;8.306;2024-01-30T11:25:14;25.17;;;20.03;;
15155;SDS011;7678;50.058;8.306;2024-01-30T11:27:44;26.23;;;20.60;;
15155;SDS011;7678;50.058;8.306;2024-01-30T11:30:20;27.80;;;20.40;;
15155;SDS011;7678;50.058;8.306;2024-01-30T11:32:59;27.50;;;20.63;;
15155;SDS011;7678;50.058;8.306;2024-01-30T11:35:31;28.97;;;20.07;;
15155;SDS011;7678;50.058;8.306;2024-01-30T11:38:01;26.70;;;20.07;;
15155;SDS011;7678;50.058;8.306;2024-01-30T11:40:32;24.70;;;20.27;;
15155;SDS011;7678;50.058;8.306;2024-01-30T11:43:01;28.90;;;20.97;;
15155;SDS011;7678;50.058;8.306;2024-01-30T11:45:31;25.83;;;20.13;;
15155;SDS011;7678;50.058;8.306;2024-01-30T11:48:00;25.27;;;20.40;;
15155;SDS011;7678;50.058;8.306;2024-01-30T11:50:30;28.03;;;19.57;;
15155;SDS011;7678;50.058;8.306;2024-01-30T11:52:59;26.10;;;18.87;;
15155;SDS011;7678;50.058;8.306;2024-01-30T11:55:28;28.27;;;19.70;;
15155;SDS011;7678;50.058;8.306;2024-01-30T11:58:02;23.67;;;18.63;;
15155;SDS011;7678;50.058;8.306;2024-01-30T12:00:31;27.60;;;19.57;;
15155;SDS011;7678;50.058;8.306;2024-01-30T12:03:03;23.00;;;19.27;;
15155;SDS011;7678;50.058;8.306;2024-01-30T12:05:33;26.80;;;20.50;;
15155;SDS011;7678;50.058;8.306;2024-01-30T12:08:03;26.23;;;19.93;;
15155;SDS011;7678;50.058;8.306;2024-01-30T12:10:32;26.03;;;19.83;;
15155;SDS011;7678;50.058;8.306;2024-01-30T12:13:02;24.07;;;18.83;;
15155;SDS011;7678;50.058;8.306;2024-01-30T12:15:31;26.27;;;18.77;;
15155;SDS011;7678;50.058;8.306;2024-01-30T12:18:06;26.63;;;18.97;;
15155;SDS011;7678;50.058;8.306;2024-01-30T12:20:37;21.57;;;17.70;;
15155;SDS011;7678;50.058;8.306;2024-01-30T12:23:06;23.53;;;18.83;;
15155;SDS011;7678;50.058;8.306;2024-01-30T12:25:36;23.07;;;18.50;;
15155;SDS011;7678;50.058;8.306;2024-01-30T12:28:09;20.97;;;18.10;;
15155;SDS011;7678;50.058;8.306;2024-01-30T12:30:39;22.77;;;18.77;;
15155;SDS011;7678;50.058;8.306;2024-01-30T12:33:07;22.70;;;17.70;;
15155;SDS011;7678;50.058;8.306;2024-01-30T12:35:36;20.60;;;16.40;;
15155;SDS011;7678;50.058;8.306;2024-01-30T12:38:17;22.20;;;16.53;;
15155;SDS011;7678;50.058;8.306;2024-01-30T12:40:46;23.07;;;16.37;;
15155;SDS011;7678;50.058;8.306;2024-01-30T12:43:16;21.20;;;15.73;;
15155;SDS011;7678;50.058;8.306;2024-01-30T12:45:57;20.70;;;16.07;;
15155;SDS011;7678;50.058;8.306;2024-01-30T12:48:27;19.37;;;15.80;;
15155;SDS011;7678;50.058;8.306;2024-01-30T12:50:56;23.77;;;16.87;;
15155;SDS011;7678;50.058;8.306;2024-01-30T12:53:25;21.10;;;15.77;;
15155;SDS011;7678;50.058;8.306;2024-01-30T12:55:53;21.40;;;14.87;;
15155;SDS011;7678;50.058;8.306;2024-01-30T12:58:23;21.87;;;16.10;;
15155;SDS011;7678;50.058;8.306;2024-01-30T13:00:51;18.37;;;14.33;;
15155;SDS011;7678;50.058;8.306;2024-01-30T13:03:21;21.97;;;15.33;;
15155;SDS011;7678;50.058;8.306;2024-01-30T13:05:52;23.67;;;15.50;;
15155;SDS011;7678;50.058;8.306;2024-01-30T13:08:21;23.07;;;15.27;;
15155;SDS011;7678;50.058;8.306;2024-01-30T13:10:49;19.53;;;14.67;;
15155;SDS011;7678;50.058;8.306;2024-01-30T13:13:18;15.97;;;12.97;;
15155;SDS011;7678;50.058;8.306;2024-01-30T13:15:48;17.90;;;14.87;;
15155;SDS011;7678;50.058;8.306;2024-01-30T13:18:16;18.73;;;13.87;;
15155;SDS011;7678;50.058;8.306;2024-01-30T13:20:45;20.27;;;13.17;;
15155;SDS011;7678;50.058;8.306;2024-01-30T13:23:14;19.07;;;12.83;;
15155;SDS011;7678;50.058;8.306;2024-01-30T13:25:42;20.50;;;13.70;;
15155;SDS011;7678;50.058;8.306;2024-01-30T13:28:10;18.63;;;13.47;;
15155;SDS011;7678;50.058;8.306;2024-01-30T13:30:38;21.37;;;14.53;;
15155;SDS011;7678;50.058;8.306;2024-01-30T13:33:08;21.90;;;14.80;;
15155;SDS011;7678;50.058;8.306;2024-01-30T13:35:36;14.97;;;13.27;;
15155;SDS011;7678;50.058;8.306;2024-01-30T13:38:04;19.90;;;13.73;;
15155;SDS011;7678;50.058;8.306;2024-01-30T13:40:32;17.13;;;13.53;;
15155;SDS011;7678;50.058;8.306;2024-01-30T13:43:01;18.60;;;14.23;;
15155;SDS011;7678;50.058;8.306;2024-01-30T13:45:29;17.10;;;13.33;;
15155;SDS011;7678;50.058;8.306;2024-01-30T13:47:57;23.83;;;13.63;;
15155;SDS011;7678;50.058;8.306;2024-01-30T13:50:27;21.00;;;13.63;;
15155;SDS011;7678;50.058;8.306;2024-01-30T13:52:55;17.73;;;12.90;;
15155;SDS011;7678;50.058;8.306;2024-01-30T13:55:26;18.13;;;14.13;;
15155;SDS011;7678;50.058;8.306;2024-01-30T13:57:55;17.53;;;13.90;;
15155;SDS011;7678;50.058;8.306;2024-01-30T14:00:24;20.50;;;14.00;;
15155;SDS011;7678;50.058;8.306;2024-01-30T14:02:52;17.43;;;13.40;;
15155;SDS011;7678;50.058;8.306;2024-01-30T14:05:21;19.70;;;14.03;;
15155;SDS011;7678;50.058;8.306;2024-01-30T14:07:51;21.40;;;13.53;;
15155;SDS011;7678;50.058;8.306;2024-01-30T14:10:20;18.27;;;14.30;;
15155;SDS011;7678;50.058;8.306;2024-01-30T14:12:48;18.43;;;13.60;;
15155;SDS011;7678;50.058;8.306;2024-01-30T14:15:16;17.60;;;14.30;;
15155;SDS011;7678;50.058;8.306;2024-01-30T14:17:54;21.57;;;14.93;;
15155;SDS011;7678;50.058;8.306;2024-01-30T14:20:24;20.77;;;14.80;;
15155;SDS011;7678;50.058;8.306;2024-01-30T14:22:54;20.20;;;15.00;;
15155;SDS011;7678;50.058;8.306;2024-01-30T14:25:23;18.83;;;14.13;;
15155;SDS011;7678;50.058;8.306;2024-01-30T14:27:52;18.33;;;13.13;;
15155;SDS011;7678;50.058;8.306;2024-01-30T14:30:20;18.80;;;14.27;;
15155;SDS011;7678;50.058;8.306;2024-01-30T14:32:49;18.03;;;14.27;;
15155;SDS011;7678;50.058;8.306;2024-01-30T14:35:18;23.53;;;15.13;;
15155;SDS011;7678;50.058;8.306;2024-01-30T14:37:47;18.13;;;15.07;;
15155;SDS011;7678;50.058;8.306;2024-01-30T14:40:17;16.47;;;14.27;;
15155;SDS011;7678;50.058;8.306;2024-01-30T14:42:45;19.27;;;14.33;;
15155;SDS011;7678;50.058;8.306;2024-01-30T14:45:14;19.33;;;13.97;;